Terminal Aerodrome Forecast
Issued by NWS

Home | Current Version | Previous Version | Text Only | Print | Product List | Glossary On
Versions: 1 2 3 4 5 6 7 8 9 10 11 12 13 14 15 16 17 18 19 20 21 22 23 24
633
FTUS43 KIWX 120116 AAA
TAFSBN
TAF AMD
KSBN 120116Z 1201/1224 32008KT 4SM -SN OVC035
      TEMPO 1201/1203 1 1/2SM -SN BKN012
     FM120400 31013KT P6SM OVC015
     FM120700 32018G26KT 1 1/2SM -SHSN BLSN OVC018
     FM121000 32018G26KT 3/4SM -SHSN BLSN OVC020
      TEMPO 1210/1214 1/2SM SN BLSN VV008
     FM121600 31017G25KT 2SM -SHSN OVC025=

USA.gov is the U.S. government's official web portal to all federal, state and local government web resources and services.